sensor_id;sensor_type;location;lat;lon;timestamp;temperature;humidity
14140;DHT22;7150;53.514;9.988;2023-08-21T00:01:02;22.80;99.90
14140;DHT22;7150;53.514;9.988;2023-08-21T00:03:27;22.80;99.90
14140;DHT22;7150;53.514;9.988;2023-08-21T00:05:53;22.80;99.90
14140;DHT22;7150;53.514;9.988;2023-08-21T00:08:18;22.80;99.90
14140;DHT22;7150;53.514;9.988;2023-08-21T00:10:44;22.80;99.90
14140;DHT22;7150;53.514;9.988;2023-08-21T00:13:09;22.80;99.90
14140;DHT22;7150;53.514;9.988;2023-08-21T00:15:37;22.80;99.90
14140;DHT22;7150;53.514;9.988;2023-08-21T00:18:02;22.80;99.90
14140;DHT22;7150;53.514;9.988;2023-08-21T00:20:28;22.80;99.90
14140;DHT22;7150;53.514;9.988;2023-08-21T00:22:53;22.70;99.90
14140;DHT22;7150;53.514;9.988;2023-08-21T00:25:21;22.70;99.90
14140;DHT22;7150;53.514;9.988;2023-08-21T00:27:46;22.70;99.90
14140;DHT22;7150;53.514;9.988;2023-08-21T00:30:12;22.70;99.90
14140;DHT22;7150;53.514;9.988;2023-08-21T00:32:40;22.70;99.90
14140;DHT22;7150;53.514;9.988;2023-08-21T00:35:06;22.70;99.90
14140;DHT22;7150;53.514;9.988;2023-08-21T00:37:31;22.70;99.90
14140;DHT22;7150;53.514;9.988;2023-08-21T00:39:57;22.60;99.90
14140;DHT22;7150;53.514;9.988;2023-08-21T00:42:22;22.60;99.90
14140;DHT22;7150;53.514;9.988;2023-08-21T00:44:48;22.60;99.90
14140;DHT22;7150;53.514;9.988;2023-08-21T00:47:13;22.60;99.90
14140;DHT22;7150;53.514;9.988;2023-08-21T00:49:39;22.60;99.90
14140;DHT22;7150;53.514;9.988;2023-08-21T00:52:07;22.60;99.90
14140;DHT22;7150;53.514;9.988;2023-08-21T00:54:34;22.50;99.90
14140;DHT22;7150;53.514;9.988;2023-08-21T00:56:59;22.50;99.90
14140;DHT22;7150;53.514;9.988;2023-08-21T00:59:25;22.50;99.90
14140;DHT22;7150;53.514;9.988;2023-08-21T01:01:51;22.40;99.90
14140;DHT22;7150;53.514;9.988;2023-08-21T01:04:17;22.40;99.90
14140;DHT22;7150;53.514;9.988;2023-08-21T01:06:42;22.40;99.90
14140;DHT22;7150;53.514;9.988;2023-08-21T01:12:02;22.40;99.90
14140;DHT22;7150;53.514;9.988;2023-08-21T01:14:54;22.40;99.90
14140;DHT22;7150;53.514;9.988;2023-08-21T01:17:24;22.40;99.90
14140;DHT22;7150;53.514;9.988;2023-08-21T01:19:50;22.30;99.90
14140;DHT22;7150;53.514;9.988;2023-08-21T01:22:17;22.30;99.90
14140;DHT22;7150;53.514;9.988;2023-08-21T01:24:43;22.30;99.90
14140;DHT22;7150;53.514;9.988;2023-08-21T01:27:09;22.30;99.90
14140;DHT22;7150;53.514;9.988;2023-08-21T01:29:35;22.20;99.90
14140;DHT22;7150;53.514;9.988;2023-08-21T01:32:14;22.20;99.90
14140;DHT22;7150;53.514;9.988;2023-08-21T01:34:42;22.30;99.90
14140;DHT22;7150;53.514;9.988;2023-08-21T01:37:08;22.20;99.90
14140;DHT22;7150;53.514;9.988;2023-08-21T01:39:34;22.20;99.90
14140;DHT22;7150;53.514;9.988;2023-08-21T01:41:59;22.20;99.90
14140;DHT22;7150;53.514;9.988;2023-08-21T01:44:25;22.20;99.90
14140;DHT22;7150;53.514;9.988;2023-08-21T01:46:52;22.10;99.90
14140;DHT22;7150;53.514;9.988;2023-08-21T01:49:18;22.10;99.90
14140;DHT22;7150;53.514;9.988;2023-08-21T01:51:44;22.20;99.90
14140;DHT22;7150;53.514;9.988;2023-08-21T01:54:10;22.10;99.90
14140;DHT22;7150;53.514;9.988;2023-08-21T01:56:35;22.20;99.90
14140;DHT22;7150;53.514;9.988;2023-08-21T01:59:01;22.10;99.90
14140;DHT22;7150;53.514;9.988;2023-08-21T02:01:27;22.20;99.90
14140;DHT22;7150;53.514;9.988;2023-08-21T02:03:52;22.20;99.90
14140;DHT22;7150;53.514;9.988;2023-08-21T02:06:18;22.20;99.90
14140;DHT22;7150;53.514;9.988;2023-08-21T02:08:43;22.10;99.90
14140;DHT22;7150;53.514;9.988;2023-08-21T02:11:09;22.10;99.90
14140;DHT22;7150;53.514;9.988;2023-08-21T02:13:34;22.00;99.90
14140;DHT22;7150;53.514;9.988;2023-08-21T02:16:00;22.10;99.90
14140;DHT22;7150;53.514;9.988;2023-08-21T02:18:25;22.10;99.90
14140;DHT22;7150;53.514;9.988;2023-08-21T02:20:51;22.00;99.90
14140;DHT22;7150;53.514;9.988;2023-08-21T02:23:17;22.00;99.90
14140;DHT22;7150;53.514;9.988;2023-08-21T02:25:43;22.00;99.90
14140;DHT22;7150;53.514;9.988;2023-08-21T02:28:09;22.00;99.90
14140;DHT22;7150;53.514;9.988;2023-08-21T02:30:34;22.00;99.90
14140;DHT22;7150;53.514;9.988;2023-08-21T02:32:59;22.00;99.90
14140;DHT22;7150;53.514;9.988;2023-08-21T02:35:25;21.90;99.90
14140;DHT22;7150;53.514;9.988;2023-08-21T02:37:51;21.90;99.90
14140;DHT22;7150;53.514;9.988;2023-08-21T02:40:16;21.80;99.90
14140;DHT22;7150;53.514;9.988;2023-08-21T02:42:42;21.80;99.90
14140;DHT22;7150;53.514;9.988;2023-08-21T02:45:08;21.80;99.90
14140;DHT22;7150;53.514;9.988;2023-08-21T02:47:37;21.80;99.90
14140;DHT22;7150;53.514;9.988;2023-08-21T02:50:04;21.90;99.90
14140;DHT22;7150;53.514;9.988;2023-08-21T02:52:30;21.80;99.90
14140;DHT22;7150;53.514;9.988;2023-08-21T02:54:56;21.80;99.90
14140;DHT22;7150;53.514;9.988;2023-08-21T02:57:22;21.70;99.90
14140;DHT22;7150;53.514;9.988;2023-08-21T02:59:48;21.80;99.90
14140;DHT22;7150;53.514;9.988;2023-08-21T03:02:13;21.70;99.90
14140;DHT22;7150;53.514;9.988;2023-08-21T03:04:39;21.70;99.90
14140;DHT22;7150;53.514;9.988;2023-08-21T03:07:04;21.70;99.90
14140;DHT22;7150;53.514;9.988;2023-08-21T03:09:30;21.70;99.90
14140;DHT22;7150;53.514;9.988;2023-08-21T03:11:55;21.70;99.90
14140;DHT22;7150;53.514;9.988;2023-08-21T03:14:21;21.70;99.90
14140;DHT22;7150;53.514;9.988;2023-08-21T03:16:46;21.70;99.90
14140;DHT22;7150;53.514;9.988;2023-08-21T03:19:12;21.70;99.90
14140;DHT22;7150;53.514;9.988;2023-08-21T03:21:37;21.70;99.90
14140;DHT22;7150;53.514;9.988;2023-08-21T03:24:03;21.70;99.90
14140;DHT22;7150;53.514;9.988;2023-08-21T03:26:28;21.70;99.90
14140;DHT22;7150;53.514;9.988;2023-08-21T03:28:54;21.70;99.90
14140;DHT22;7150;53.514;9.988;2023-08-21T03:31:19;21.70;99.90
14140;DHT22;7150;53.514;9.988;2023-08-21T03:33:45;21.70;99.90
14140;DHT22;7150;53.514;9.988;2023-08-21T03:36:12;21.60;99.90
14140;DHT22;7150;53.514;9.988;2023-08-21T03:38:37;21.60;99.90
14140;DHT22;7150;53.514;9.988;2023-08-21T03:41:03;21.60;99.90
14140;DHT22;7150;53.514;9.988;2023-08-21T03:43:30;21.60;99.90
14140;DHT22;7150;53.514;9.988;2023-08-21T03:45:56;21.60;99.90
14140;DHT22;7150;53.514;9.988;2023-08-21T03:48:21;21.60;99.90
14140;DHT22;7150;53.514;9.988;2023-08-21T03:50:48;21.60;99.90
14140;DHT22;7150;53.514;9.988;2023-08-21T03:53:14;21.60;99.90
14140;DHT22;7150;53.514;9.988;2023-08-21T03:55:39;21.50;99.90
14140;DHT22;7150;53.514;9.988;2023-08-21T03:58:05;21.60;99.90
14140;DHT22;7150;53.514;9.988;2023-08-21T04:00:30;21.50;99.90
14140;DHT22;7150;53.514;9.988;2023-08-21T04:02:57;21.50;99.90
14140;DHT22;7150;53.514;9.988;2023-08-21T04:05:22;21.50;99.90
14140;DHT22;7150;53.514;9.988;2023-08-21T04:07:48;21.50;99.90
14140;DHT22;7150;53.514;9.988;2023-08-21T04:10:13;21.50;99.90
14140;DHT22;7150;53.514;9.988;2023-08-21T04:12:39;21.50;99.90
14140;DHT22;7150;53.514;9.988;2023-08-21T04:15:04;21.50;99.90
14140;DHT22;7150;53.514;9.988;2023-08-21T04:17:31;21.50;99.90
14140;DHT22;7150;53.514;9.988;2023-08-21T04:19:57;21.50;99.90
14140;DHT22;7150;53.514;9.988;2023-08-21T04:22:22;21.40;99.90
14140;DHT22;7150;53.514;9.988;2023-08-21T04:24:48;21.40;99.90
14140;DHT22;7150;53.514;9.988;2023-08-21T04:27:13;21.40;99.90
14140;DHT22;7150;53.514;9.988;2023-08-21T04:29:39;21.50;99.90
14140;DHT22;7150;53.514;9.988;2023-08-21T04:32:05;21.50;99.90
14140;DHT22;7150;53.514;9.988;2023-08-21T04:34:32;21.40;99.90
14140;DHT22;7150;53.514;9.988;2023-08-21T04:36:58;21.40;99.90
14140;DHT22;7150;53.514;9.988;2023-08-21T04:39:23;21.40;99.90
14140;DHT22;7150;53.514;9.988;2023-08-21T04:41:49;21.50;99.90
14140;DHT22;7150;53.514;9.988;2023-08-21T04:44:14;21.50;99.90
14140;DHT22;7150;53.514;9.988;2023-08-21T04:46:40;21.40;99.90
14140;DHT22;7150;53.514;9.988;2023-08-21T04:49:05;21.50;99.90
14140;DHT22;7150;53.514;9.988;2023-08-21T04:51:31;21.50;99.90
14140;DHT22;7150;53.514;9.988;2023-08-21T04:53:57;21.50;99.90
14140;DHT22;7150;53.514;9.988;2023-08-21T04:56:25;21.50;99.90
14140;DHT22;7150;53.514;9.988;2023-08-21T04:58:50;21.50;99.90
14140;DHT22;7150;53.514;9.988;2023-08-21T05:01:16;21.50;99.90
14140;DHT22;7150;53.514;9.988;2023-08-21T05:03:41;21.40;99.90
14140;DHT22;7150;53.514;9.988;2023-08-21T05:06:07;21.50;99.90
14140;DHT22;7150;53.514;9.988;2023-08-21T05:08:33;21.40;99.90
14140;DHT22;7150;53.514;9.988;2023-08-21T05:10:59;21.50;99.90
14140;DHT22;7150;53.514;9.988;2023-08-21T05:13:25;21.50;99.90
14140;DHT22;7150;53.514;9.988;2023-08-21T05:15:57;21.50;99.90
14140;DHT22;7150;53.514;9.988;2023-08-21T05:18:24;21.50;99.90
14140;DHT22;7150;53.514;9.988;2023-08-21T05:20:50;21.50;99.90
14140;DHT22;7150;53.514;9.988;2023-08-21T05:23:17;21.50;99.90
14140;DHT22;7150;53.514;9.988;2023-08-21T05:25:45;21.50;99.90
14140;DHT22;7150;53.514;9.988;2023-08-21T05:28:11;21.50;99.90
14140;DHT22;7150;53.514;9.988;2023-08-21T05:30:37;21.50;99.90
14140;DHT22;7150;53.514;9.988;2023-08-21T05:33:03;21.50;99.90
14140;DHT22;7150;53.514;9.988;2023-08-21T05:35:32;21.50;99.90
14140;DHT22;7150;53.514;9.988;2023-08-21T05:37:57;21.50;99.90
14140;DHT22;7150;53.514;9.988;2023-08-21T05:40:23;21.50;99.90
14140;DHT22;7150;53.514;9.988;2023-08-21T05:42:48;21.50;99.90
14140;DHT22;7150;53.514;9.988;2023-08-21T05:45:14;21.50;99.90
14140;DHT22;7150;53.514;9.988;2023-08-21T05:47:39;21.60;99.90
14140;DHT22;7150;53.514;9.988;2023-08-21T05:50:05;21.50;99.90
14140;DHT22;7150;53.514;9.988;2023-08-21T05:52:31;21.70;99.90
14140;DHT22;7150;53.514;9.988;2023-08-21T05:54:56;21.60;99.90
14140;DHT22;7150;53.514;9.988;2023-08-21T05:57:22;21.60;99.90
14140;DHT22;7150;53.514;9.988;2023-08-21T05:59:47;21.60;99.90
14140;DHT22;7150;53.514;9.988;2023-08-21T06:02:14;21.60;99.90
14140;DHT22;7150;53.514;9.988;2023-08-21T06:04:42;21.70;99.90
14140;DHT22;7150;53.514;9.988;2023-08-21T06:07:08;21.70;99.90
14140;DHT22;7150;53.514;9.988;2023-08-21T06:09:34;21.60;99.90
14140;DHT22;7150;53.514;9.988;2023-08-21T06:12:01;21.60;99.90
14140;DHT22;7150;53.514;9.988;2023-08-21T06:14:27;21.70;99.90
14140;DHT22;7150;53.514;9.988;2023-08-21T06:16:57;21.70;99.90
14140;DHT22;7150;53.514;9.988;2023-08-21T06:19:23;21.70;99.90
14140;DHT22;7150;53.514;9.988;2023-08-21T06:21:48;21.60;99.90
14140;DHT22;7150;53.514;9.988;2023-08-21T06:24:14;21.60;99.90
14140;DHT22;7150;53.514;9.988;2023-08-21T06:26:40;21.70;99.90
14140;DHT22;7150;53.514;9.988;2023-08-21T06:29:05;21.70;99.90
14140;DHT22;7150;53.514;9.988;2023-08-21T06:31:31;21.70;99.90
14140;DHT22;7150;53.514;9.988;2023-08-21T06:33:56;21.80;99.90
14140;DHT22;7150;53.514;9.988;2023-08-21T06:36:22;21.80;99.90
14140;DHT22;7150;53.514;9.988;2023-08-21T06:38:48;21.80;99.90
14140;DHT22;7150;53.514;9.988;2023-08-21T06:41:13;21.80;99.90
14140;DHT22;7150;53.514;9.988;2023-08-21T06:43:39;21.80;99.90
14140;DHT22;7150;53.514;9.988;2023-08-21T06:46:05;21.80;99.90
14140;DHT22;7150;53.514;9.988;2023-08-21T06:48:30;21.90;99.90
14140;DHT22;7150;53.514;9.988;2023-08-21T06:50:56;21.90;99.90
14140;DHT22;7150;53.514;9.988;2023-08-21T06:53:22;21.90;99.90
14140;DHT22;7150;53.514;9.988;2023-08-21T06:55:47;21.90;99.90
14140;DHT22;7150;53.514;9.988;2023-08-21T06:58:13;21.90;99.90
14140;DHT22;7150;53.514;9.988;2023-08-21T07:00:39;21.90;99.90
14140;DHT22;7150;53.514;9.988;2023-08-21T07:03:04;21.90;99.90
14140;DHT22;7150;53.514;9.988;2023-08-21T07:05:33;21.90;99.90
14140;DHT22;7150;53.514;9.988;2023-08-21T07:07:59;21.90;99.90
14140;DHT22;7150;53.514;9.988;2023-08-21T07:10:24;21.90;99.90
14140;DHT22;7150;53.514;9.988;2023-08-21T07:12:50;21.90;99.90
14140;DHT22;7150;53.514;9.988;2023-08-21T07:15:15;21.90;99.90
14140;DHT22;7150;53.514;9.988;2023-08-21T07:17:41;22.00;99.90
14140;DHT22;7150;53.514;9.988;2023-08-21T07:20:07;21.90;99.90
14140;DHT22;7150;53.514;9.988;2023-08-21T07:22:32;21.90;99.90
14140;DHT22;7150;53.514;9.988;2023-08-21T07:24:58;22.00;99.90
14140;DHT22;7150;53.514;9.988;2023-08-21T07:27:29;22.00;99.90
14140;DHT22;7150;53.514;9.988;2023-08-21T07:29:55;22.00;99.90
14140;DHT22;7150;53.514;9.988;2023-08-21T07:32:20;22.10;99.90
14140;DHT22;7150;53.514;9.988;2023-08-21T07:34:46;22.10;99.90
14140;DHT22;7150;53.514;9.988;2023-08-21T07:37:11;22.10;99.90
14140;DHT22;7150;53.514;9.988;2023-08-21T07:39:37;22.00;99.90
14140;DHT22;7150;53.514;9.988;2023-08-21T07:42:02;22.00;99.90
14140;DHT22;7150;53.514;9.988;2023-08-21T07:44:28;22.00;99.90
14140;DHT22;7150;53.514;9.988;2023-08-21T07:46:53;22.00;99.90
14140;DHT22;7150;53.514;9.988;2023-08-21T07:49:19;22.00;99.90
14140;DHT22;7150;53.514;9.988;2023-08-21T07:51:44;22.10;99.90
14140;DHT22;7150;53.514;9.988;2023-08-21T07:54:10;22.00;99.90
14140;DHT22;7150;53.514;9.988;2023-08-21T07:56:37;22.00;99.90
14140;DHT22;7150;53.514;9.988;2023-08-21T07:59:02;22.00;99.90
14140;DHT22;7150;53.514;9.988;2023-08-21T08:01:28;22.00;99.90
14140;DHT22;7150;53.514;9.988;2023-08-21T08:03:54;22.10;99.90
14140;DHT22;7150;53.514;9.988;2023-08-21T08:06:19;22.20;99.90
14140;DHT22;7150;53.514;9.988;2023-08-21T08:08:45;22.20;99.90
14140;DHT22;7150;53.514;9.988;2023-08-21T08:11:11;22.20;99.90
14140;DHT22;7150;53.514;9.988;2023-08-21T08:13:36;22.20;99.90
14140;DHT22;7150;53.514;9.988;2023-08-21T08:16:02;22.20;99.90
14140;DHT22;7150;53.514;9.988;2023-08-21T08:18:27;22.20;99.90
14140;DHT22;7150;53.514;9.988;2023-08-21T08:20:53;22.30;99.90
14140;DHT22;7150;53.514;9.988;2023-08-21T08:23:20;22.30;99.90
14140;DHT22;7150;53.514;9.988;2023-08-21T08:25:45;22.30;99.90
14140;DHT22;7150;53.514;9.988;2023-08-21T08:28:11;22.20;99.90
14140;DHT22;7150;53.514;9.988;2023-08-21T08:30:36;22.20;99.90
14140;DHT22;7150;53.514;9.988;2023-08-21T08:33:02;22.20;99.90
14140;DHT22;7150;53.514;9.988;2023-08-21T08:35:27;22.30;99.90
14140;DHT22;7150;53.514;9.988;2023-08-21T08:37:53;22.40;99.90
14140;DHT22;7150;53.514;9.988;2023-08-21T08:40:18;22.40;99.90
14140;DHT22;7150;53.514;9.988;2023-08-21T08:42:44;22.40;99.90
14140;DHT22;7150;53.514;9.988;2023-08-21T08:45:13;22.40;99.90
14140;DHT22;7150;53.514;9.988;2023-08-21T08:47:40;22.40;99.90
14140;DHT22;7150;53.514;9.988;2023-08-21T08:50:07;22.40;99.90
14140;DHT22;7150;53.514;9.988;2023-08-21T08:52:38;22.40;99.90
14140;DHT22;7150;53.514;9.988;2023-08-21T08:55:05;22.50;99.90
14140;DHT22;7150;53.514;9.988;2023-08-21T08:57:34;22.50;99.90
14140;DHT22;7150;53.514;9.988;2023-08-21T09:00:00;22.50;99.90
14140;DHT22;7150;53.514;9.988;2023-08-21T09:02:26;22.40;99.90
14140;DHT22;7150;53.514;9.988;2023-08-21T09:04:52;22.40;99.90
14140;DHT22;7150;53.514;9.988;2023-08-21T09:07:17;22.40;99.90
14140;DHT22;7150;53.514;9.988;2023-08-21T09:09:46;22.40;99.90
14140;DHT22;7150;53.514;9.988;2023-08-21T09:12:13;22.40;99.90
14140;DHT22;7150;53.514;9.988;2023-08-21T09:14:40;22.50;99.90
14140;DHT22;7150;53.514;9.988;2023-08-21T09:17:06;22.40;99.90
14140;DHT22;7150;53.514;9.988;2023-08-21T09:19:31;22.40;99.90
14140;DHT22;7150;53.514;9.988;2023-08-21T09:21:57;22.50;99.90
14140;DHT22;7150;53.514;9.988;2023-08-21T09:24:23;22.50;99.90
14140;DHT22;7150;53.514;9.988;2023-08-21T09:26:50;22.60;99.90
14140;DHT22;7150;53.514;9.988;2023-08-21T09:29:15;22.60;99.90
14140;DHT22;7150;53.514;9.988;2023-08-21T09:31:41;22.60;99.90
14140;DHT22;7150;53.514;9.988;2023-08-21T09:34:08;22.70;99.90
14140;DHT22;7150;53.514;9.988;2023-08-21T09:36:35;22.70;99.90
14140;DHT22;7150;53.514;9.988;2023-08-21T09:39:01;22.80;99.90
14140;DHT22;7150;53.514;9.988;2023-08-21T09:41:28;22.80;99.90
14140;DHT22;7150;53.514;9.988;2023-08-21T09:43:58;22.80;99.90
14140;DHT22;7150;53.514;9.988;2023-08-21T09:46:25;22.80;99.90
14140;DHT22;7150;53.514;9.988;2023-08-21T09:48:52;22.70;99.90
14140;DHT22;7150;53.514;9.988;2023-08-21T09:51:18;22.70;99.90
14140;DHT22;7150;53.514;9.988;2023-08-21T09:53:44;22.80;99.90
14140;DHT22;7150;53.514;9.988;2023-08-21T09:56:10;22.80;99.90
14140;DHT22;7150;53.514;9.988;2023-08-21T09:58:36;22.90;99.90
14140;DHT22;7150;53.514;9.988;2023-08-21T10:01:05;22.90;99.90
14140;DHT22;7150;53.514;9.988;2023-08-21T10:03:38;22.80;99.90
14140;DHT22;7150;53.514;9.988;2023-08-21T10:06:04;22.80;99.90
14140;DHT22;7150;53.514;9.988;2023-08-21T10:08:31;22.90;99.90
14140;DHT22;7150;53.514;9.988;2023-08-21T10:11:04;22.90;99.90
14140;DHT22;7150;53.514;9.988;2023-08-21T10:13:31;23.00;99.90
14140;DHT22;7150;53.514;9.988;2023-08-21T10:15:57;23.00;99.90
14140;DHT22;7150;53.514;9.988;2023-08-21T10:18:31;23.10;99.90
14140;DHT22;7150;53.514;9.988;2023-08-21T10:21:17;23.10;99.90
14140;DHT22;7150;53.514;9.988;2023-08-21T10:23:46;23.10;99.90
14140;DHT22;7150;53.514;9.988;2023-08-21T10:26:12;23.10;99.90
14140;DHT22;7150;53.514;9.988;2023-08-21T10:28:49;23.00;99.90
14140;DHT22;7150;53.514;9.988;2023-08-21T10:33:56;23.20;99.90
14140;DHT22;7150;53.514;9.988;2023-08-21T10:37:09;23.10;99.90
14140;DHT22;7150;53.514;9.988;2023-08-21T10:39:38;23.20;99.90
14140;DHT22;7150;53.514;9.988;2023-08-21T10:42:08;23.20;99.90
14140;DHT22;7150;53.514;9.988;2023-08-21T10:49:57;23.30;99.90
14140;DHT22;7150;53.514;9.988;2023-08-21T10:52:27;23.20;99.90
14140;DHT22;7150;53.514;9.988;2023-08-21T10:54:55;23.30;99.90
14140;DHT22;7150;53.514;9.988;2023-08-21T10:57:22;23.30;99.90
14140;DHT22;7150;53.514;9.988;2023-08-21T10:59:56;23.40;99.90
14140;DHT22;7150;53.514;9.988;2023-08-21T11:02:22;23.40;99.90
14140;DHT22;7150;53.514;9.988;2023-08-21T11:04:49;23.40;99.90
14140;DHT22;7150;53.514;9.988;2023-08-21T11:07:14;23.40;99.90
14140;DHT22;7150;53.514;9.988;2023-08-21T11:09:40;23.40;99.90
14140;DHT22;7150;53.514;9.988;2023-08-21T11:12:16;23.40;99.90
14140;DHT22;7150;53.514;9.988;2023-08-21T11:14:43;23.50;99.90
14140;DHT22;7150;53.514;9.988;2023-08-21T11:17:09;23.40;99.90
14140;DHT22;7150;53.514;9.988;2023-08-21T11:19:36;23.50;99.90
14140;DHT22;7150;53.514;9.988;2023-08-21T11:22:03;23.60;99.90
14140;DHT22;7150;53.514;9.988;2023-08-21T11:27:11;23.70;99.90
14140;DHT22;7150;53.514;9.988;2023-08-21T11:32:17;23.70;99.90
14140;DHT22;7150;53.514;9.988;2023-08-21T11:34:54;23.70;99.90
14140;DHT22;7150;53.514;9.988;2023-08-21T11:37:21;23.70;99.90
14140;DHT22;7150;53.514;9.988;2023-08-21T11:39:49;23.70;99.90
14140;DHT22;7150;53.514;9.988;2023-08-21T11:42:15;23.70;99.90
14140;DHT22;7150;53.514;9.988;2023-08-21T11:44:47;23.80;99.90
14140;DHT22;7150;53.514;9.988;2023-08-21T11:47:13;23.80;99.90
14140;DHT22;7150;53.514;9.988;2023-08-21T11:49:42;23.80;99.90
14140;DHT22;7150;53.514;9.988;2023-08-21T11:52:09;23.80;99.90
14140;DHT22;7150;53.514;9.988;2023-08-21T11:54:37;23.90;99.90
14140;DHT22;7150;53.514;9.988;2023-08-21T11:57:07;23.90;99.90
14140;DHT22;7150;53.514;9.988;2023-08-21T11:59:33;23.90;99.90
14140;DHT22;7150;53.514;9.988;2023-08-21T12:01:58;24.00;99.90
14140;DHT22;7150;53.514;9.988;2023-08-21T12:04:24;24.00;99.90
14140;DHT22;7150;53.514;9.988;2023-08-21T12:06:50;24.10;99.90
14140;DHT22;7150;53.514;9.988;2023-08-21T12:09:16;24.20;99.90
14140;DHT22;7150;53.514;9.988;2023-08-21T12:11:41;24.30;99.90
14140;DHT22;7150;53.514;9.988;2023-08-21T12:14:07;24.40;99.90
14140;DHT22;7150;53.514;9.988;2023-08-21T12:16:33;24.40;99.90
14140;DHT22;7150;53.514;9.988;2023-08-21T12:18:58;24.50;99.90
14140;DHT22;7150;53.514;9.988;2023-08-21T12:21:25;24.40;99.50
14140;DHT22;7150;53.514;9.988;2023-08-21T12:23:50;24.40;99.70
14140;DHT22;7150;53.514;9.988;2023-08-21T12:26:16;24.40;99.70
14140;DHT22;7150;53.514;9.988;2023-08-21T12:28:49;24.50;99.90
14140;DHT22;7150;53.514;9.988;2023-08-21T12:31:15;24.60;99.70
14140;DHT22;7150;53.514;9.988;2023-08-21T12:33:40;24.90;98.80
14140;DHT22;7150;53.514;9.988;2023-08-21T12:36:06;25.00;97.90
14140;DHT22;7150;53.514;9.988;2023-08-21T12:38:34;25.10;97.30
14140;DHT22;7150;53.514;9.988;2023-08-21T12:41:01;25.10;97.70
14140;DHT22;7150;53.514;9.988;2023-08-21T12:43:26;25.30;97.90
14140;DHT22;7150;53.514;9.988;2023-08-21T12:45:52;25.50;97.80
14140;DHT22;7150;53.514;9.988;2023-08-21T12:48:17;25.50;97.50
14140;DHT22;7150;53.514;9.988;2023-08-21T12:50:43;25.30;97.20
14140;DHT22;7150;53.514;9.988;2023-08-21T12:53:08;25.20;97.20
14140;DHT22;7150;53.514;9.988;2023-08-21T12:55:33;25.20;97.30
14140;DHT22;7150;53.514;9.988;2023-08-21T12:57:59;25.20;96.70
14140;DHT22;7150;53.514;9.988;2023-08-21T13:00:25;25.20;95.90
14140;DHT22;7150;53.514;9.988;2023-08-21T13:02:50;25.30;95.80
14140;DHT22;7150;53.514;9.988;2023-08-21T13:05:16;25.20;95.80
14140;DHT22;7150;53.514;9.988;2023-08-21T13:07:42;25.20;96.40
14140;DHT22;7150;53.514;9.988;2023-08-21T13:10:08;25.10;96.90
14140;DHT22;7150;53.514;9.988;2023-08-21T13:12:34;25.10;97.00
14140;DHT22;7150;53.514;9.988;2023-08-21T13:15:00;25.00;96.80
14140;DHT22;7150;53.514;9.988;2023-08-21T13:17:25;24.90;96.50
14140;DHT22;7150;53.514;9.988;2023-08-21T13:19:51;24.80;97.00
14140;DHT22;7150;53.514;9.988;2023-08-21T13:22:17;24.80;97.20
14140;DHT22;7150;53.514;9.988;2023-08-21T13:24:42;24.90;97.20
14140;DHT22;7150;53.514;9.988;2023-08-21T13:27:08;24.90;96.60
14140;DHT22;7150;53.514;9.988;2023-08-21T13:29:33;24.90;96.10
14140;DHT22;7150;53.514;9.988;2023-08-21T13:31:59;24.90;96.00
14140;DHT22;7150;53.514;9.988;2023-08-21T13:34:24;24.90;95.30
14140;DHT22;7150;53.514;9.988;2023-08-21T13:36:50;24.80;95.20
14140;DHT22;7150;53.514;9.988;2023-08-21T13:39:16;24.80;95.20
14140;DHT22;7150;53.514;9.988;2023-08-21T13:41:42;24.80;95.30
14140;DHT22;7150;53.514;9.988;2023-08-21T13:44:07;24.80;95.20
14140;DHT22;7150;53.514;9.988;2023-08-21T13:46:34;24.90;94.80
14140;DHT22;7150;53.514;9.988;2023-08-21T13:48:59;24.80;94.20
14140;DHT22;7150;53.514;9.988;2023-08-21T13:51:25;24.80;94.50
14140;DHT22;7150;53.514;9.988;2023-08-21T13:53:50;24.80;94.50
14140;DHT22;7150;53.514;9.988;2023-08-21T13:56:16;24.80;94.80
14140;DHT22;7150;53.514;9.988;2023-08-21T13:58:41;24.70;94.70
14140;DHT22;7150;53.514;9.988;2023-08-21T14:01:07;24.70;95.10
14140;DHT22;7150;53.514;9.988;2023-08-21T14:03:33;24.70;95.10
14140;DHT22;7150;53.514;9.988;2023-08-21T14:05:59;24.80;95.20
14140;DHT22;7150;53.514;9.988;2023-08-21T14:08:25;24.70;94.20
14140;DHT22;7150;53.514;9.988;2023-08-21T14:10:50;24.70;94.10
14140;DHT22;7150;53.514;9.988;2023-08-21T14:13:16;24.80;94.90
14140;DHT22;7150;53.514;9.988;2023-08-21T14:15:41;24.80;96.20
14140;DHT22;7150;53.514;9.988;2023-08-21T14:18:07;24.80;94.80
14140;DHT22;7150;53.514;9.988;2023-08-21T14:20:32;24.80;94.40
14140;DHT22;7150;53.514;9.988;2023-08-21T14:22:58;24.80;94.70
14140;DHT22;7150;53.514;9.988;2023-08-21T14:25:23;24.80;94.60
14140;DHT22;7150;53.514;9.988;2023-08-21T14:27:49;24.90;93.80
14140;DHT22;7150;53.514;9.988;2023-08-21T14:30:15;24.90;94.20
14140;DHT22;7150;53.514;9.988;2023-08-21T14:32:40;25.00;94.00
14140;DHT22;7150;53.514;9.988;2023-08-21T14:35:07;25.10;94.00
14140;DHT22;7150;53.514;9.988;2023-08-21T14:37:33;25.20;93.50
14140;DHT22;7150;53.514;9.988;2023-08-21T14:39:59;25.50;94.30
14140;DHT22;7150;53.514;9.988;2023-08-21T14:42:24;25.60;94.20
14140;DHT22;7150;53.514;9.988;2023-08-21T14:44:50;25.80;94.10
14140;DHT22;7150;53.514;9.988;2023-08-21T14:47:15;25.90;92.60
14140;DHT22;7150;53.514;9.988;2023-08-21T14:49:41;26.00;93.30
14140;DHT22;7150;53.514;9.988;2023-08-21T14:52:06;26.10;92.50
14140;DHT22;7150;53.514;9.988;2023-08-21T14:54:33;26.40;91.30
14140;DHT22;7150;53.514;9.988;2023-08-21T14:57:00;26.70;90.80
14140;DHT22;7150;53.514;9.988;2023-08-21T14:59:25;27.00;92.00
14140;DHT22;7150;53.514;9.988;2023-08-21T15:01:51;27.40;91.90
14140;DHT22;7150;53.514;9.988;2023-08-21T15:04:17;27.80;91.00
14140;DHT22;7150;53.514;9.988;2023-08-21T15:06:42;28.20;91.90
14140;DHT22;7150;53.514;9.988;2023-08-21T15:09:08;28.50;90.40
14140;DHT22;7150;53.514;9.988;2023-08-21T15:11:34;28.90;91.80
14140;DHT22;7150;53.514;9.988;2023-08-21T15:14:01;29.20;87.70
14140;DHT22;7150;53.514;9.988;2023-08-21T15:16:28;29.40;85.60
14140;DHT22;7150;53.514;9.988;2023-08-21T15:18:53;29.70;87.20
14140;DHT22;7150;53.514;9.988;2023-08-21T15:21:19;29.80;87.80
14140;DHT22;7150;53.514;9.988;2023-08-21T15:23:45;29.80;83.60
14140;DHT22;7150;53.514;9.988;2023-08-21T15:26:11;29.40;83.10
14140;DHT22;7150;53.514;9.988;2023-08-21T15:28:36;29.10;83.90
14140;DHT22;7150;53.514;9.988;2023-08-21T15:31:02;28.90;87.60
14140;DHT22;7150;53.514;9.988;2023-08-21T15:33:28;28.60;84.00
14140;DHT22;7150;53.514;9.988;2023-08-21T15:35:54;28.40;86.80
14140;DHT22;7150;53.514;9.988;2023-08-21T15:38:19;28.10;84.30
14140;DHT22;7150;53.514;9.988;2023-08-21T15:40:45;27.60;84.20
14140;DHT22;7150;53.514;9.988;2023-08-21T15:43:10;27.50;85.60
14140;DHT22;7150;53.514;9.988;2023-08-21T15:45:36;27.30;86.80
14140;DHT22;7150;53.514;9.988;2023-08-21T15:48:01;27.10;84.70
14140;DHT22;7150;53.514;9.988;2023-08-21T15:50:27;26.90;85.60
14140;DHT22;7150;53.514;9.988;2023-08-21T15:52:52;26.80;86.10
14140;DHT22;7150;53.514;9.988;2023-08-21T15:55:18;26.70;86.60